sensor_id;sensor_type;location;lat;lon;timestamp;P1;durP1;ratioP1;P2;durP2;ratioP2
52438;SDS011;73188;52.948;6.012;2024-02-23T00:01:44;724.45;;;268.13;;
52438;SDS011;73188;52.948;6.012;2024-02-23T00:12:10;708.83;;;277.17;;
52438;SDS011;73188;52.948;6.012;2024-02-23T00:22:37;713.92;;;277.42;;
52438;SDS011;73188;52.948;6.012;2024-02-23T00:33:03;740.33;;;269.17;;
52438;SDS011;73188;52.948;6.012;2024-02-23T00:43:29;752.60;;;271.33;;
52438;SDS011;73188;52.948;6.012;2024-02-23T00:53:55;714.92;;;272.35;;
52438;SDS011;73188;52.948;6.012;2024-02-23T01:04:21;708.55;;;271.45;;
52438;SDS011;73188;52.948;6.012;2024-02-23T01:14:47;700.08;;;284.17;;
52438;SDS011;73188;52.948;6.012;2024-02-23T01:25:13;742.42;;;290.23;;
52438;SDS011;73188;52.948;6.012;2024-02-23T01:35:40;723.67;;;276.15;;
52438;SDS011;73188;52.948;6.012;2024-02-23T01:46:06;747.50;;;291.80;;
52438;SDS011;73188;52.948;6.012;2024-02-23T01:56:32;723.55;;;276.00;;
52438;SDS011;73188;52.948;6.012;2024-02-23T02:06:59;746.63;;;278.02;;
52438;SDS011;73188;52.948;6.012;2024-02-23T02:17:26;708.15;;;281.67;;
52438;SDS011;73188;52.948;6.012;2024-02-23T02:27:52;714.95;;;285.58;;
52438;SDS011;73188;52.948;6.012;2024-02-23T02:38:18;726.17;;;274.63;;
52438;SDS011;73188;52.948;6.012;2024-02-23T02:48:44;733.08;;;278.55;;
52438;SDS011;73188;52.948;6.012;2024-02-23T02:59:10;690.45;;;280.70;;
52438;SDS011;73188;52.948;6.012;2024-02-23T03:09:35;698.97;;;281.02;;
52438;SDS011;73188;52.948;6.012;2024-02-23T03:20:01;729.78;;;275.27;;
52438;SDS011;73188;52.948;6.012;2024-02-23T03:30:34;700.15;;;283.90;;
52438;SDS011;73188;52.948;6.012;2024-02-23T03:41:00;703.47;;;267.13;;
52438;SDS011;73188;52.948;6.012;2024-02-23T03:51:26;690.67;;;282.25;;
52438;SDS011;73188;52.948;6.012;2024-02-23T04:01:52;706.90;;;286.42;;
52438;SDS011;73188;52.948;6.012;2024-02-23T04:12:18;702.85;;;284.38;;
52438;SDS011;73188;52.948;6.012;2024-02-23T04:22:44;691.67;;;281.80;;
52438;SDS011;73188;52.948;6.012;2024-02-23T04:33:11;696.13;;;271.00;;
52438;SDS011;73188;52.948;6.012;2024-02-23T04:43:37;707.20;;;283.50;;
52438;SDS011;73188;52.948;6.012;2024-02-23T04:54:02;675.85;;;267.20;;
52438;SDS011;73188;52.948;6.012;2024-02-23T05:04:28;681.90;;;267.60;;
52438;SDS011;73188;52.948;6.012;2024-02-23T05:14:54;706.53;;;281.95;;
52438;SDS011;73188;52.948;6.012;2024-02-23T05:25:20;687.08;;;270.63;;
52438;SDS011;73188;52.948;6.012;2024-02-23T05:35:46;671.50;;;265.45;;
52438;SDS011;73188;52.948;6.012;2024-02-23T05:46:15;683.63;;;281.00;;
52438;SDS011;73188;52.948;6.012;2024-02-23T05:56:41;700.55;;;272.90;;
52438;SDS011;73188;52.948;6.012;2024-02-23T06:07:09;726.60;;;287.33;;
52438;SDS011;73188;52.948;6.012;2024-02-23T06:17:34;694.60;;;270.42;;
52438;SDS011;73188;52.948;6.012;2024-02-23T06:28:02;683.50;;;265.13;;
52438;SDS011;73188;52.948;6.012;2024-02-23T06:38:28;706.08;;;287.17;;
52438;SDS011;73188;52.948;6.012;2024-02-23T06:48:53;728.90;;;280.38;;
52438;SDS011;73188;52.948;6.012;2024-02-23T06:59:19;701.83;;;286.23;;
52438;SDS011;73188;52.948;6.012;2024-02-23T07:09:45;679.13;;;281.05;;
52438;SDS011;73188;52.948;6.012;2024-02-23T07:20:11;706.75;;;287.42;;
52438;SDS011;73188;52.948;6.012;2024-02-23T07:30:37;715.47;;;289.17;;
52438;SDS011;73188;52.948;6.012;2024-02-23T07:41:03;710.05;;;288.25;;
52438;SDS011;73188;52.948;6.012;2024-02-23T07:51:28;938.47;;;339.30;;
52438;SDS011;73188;52.948;6.012;2024-02-23T08:01:54;978.07;;;334.10;;
52438;SDS011;73188;52.948;6.012;2024-02-23T08:12:20;1008.63;;;358.53;;
52438;SDS011;73188;52.948;6.012;2024-02-23T08:22:46;1031.70;;;362.27;;
52438;SDS011;73188;52.948;6.012;2024-02-23T08:33:12;1031.67;;;357.97;;
52438;SDS011;73188;52.948;6.012;2024-02-23T08:43:38;1041.03;;;346.23;;
52438;SDS011;73188;52.948;6.012;2024-02-23T08:54:04;1018.13;;;364.03;;
52438;SDS011;73188;52.948;6.012;2024-02-23T09:04:31;1021.50;;;361.77;;
52438;SDS011;73188;52.948;6.012;2024-02-23T09:14:57;986.03;;;342.27;;
52438;SDS011;73188;52.948;6.012;2024-02-23T09:25:23;971.07;;;341.80;;
52438;SDS011;73188;52.948;6.012;2024-02-23T09:35:49;1022.53;;;353.63;;
52438;SDS011;73188;52.948;6.012;2024-02-23T09:46:15;1048.37;;;355.77;;
52438;SDS011;73188;52.948;6.012;2024-02-23T09:56:42;1034.20;;;365.73;;
52438;SDS011;73188;52.948;6.012;2024-02-23T10:07:08;1014.97;;;345.50;;
52438;SDS011;73188;52.948;6.012;2024-02-23T10:17:34;1009.40;;;348.70;;
52438;SDS011;73188;52.948;6.012;2024-02-23T10:28:01;1034.87;;;344.47;;
52438;SDS011;73188;52.948;6.012;2024-02-23T10:38:32;1050.03;;;357.57;;
52438;SDS011;73188;52.948;6.012;2024-02-23T10:48:58;991.13;;;345.07;;
52438;SDS011;73188;52.948;6.012;2024-02-23T10:59:25;1005.43;;;338.23;;
52438;SDS011;73188;52.948;6.012;2024-02-23T11:09:52;1015.63;;;344.47;;
52438;SDS011;73188;52.948;6.012;2024-02-23T11:20:18;1007.03;;;356.63;;
52438;SDS011;73188;52.948;6.012;2024-02-23T11:30:50;950.97;;;350.20;;
52438;SDS011;73188;52.948;6.012;2024-02-23T11:41:17;956.20;;;358.87;;
52438;SDS011;73188;52.948;6.012;2024-02-23T11:51:44;986.53;;;368.30;;
52438;SDS011;73188;52.948;6.012;2024-02-23T12:02:09;983.00;;;366.10;;
52438;SDS011;73188;52.948;6.012;2024-02-23T12:12:35;936.27;;;339.70;;
52438;SDS011;73188;52.948;6.012;2024-02-23T12:23:02;954.90;;;352.40;;
52438;SDS011;73188;52.948;6.012;2024-02-23T12:33:31;948.77;;;337.13;;
52438;SDS011;73188;52.948;6.012;2024-02-23T12:43:59;969.17;;;353.60;;
52438;SDS011;73188;52.948;6.012;2024-02-23T12:54:25;953.67;;;331.40;;
52438;SDS011;73188;52.948;6.012;2024-02-23T13:04:50;972.23;;;342.83;;
52438;SDS011;73188;52.948;6.012;2024-02-23T13:15:16;934.42;;;329.15;;
52438;SDS011;73188;52.948;6.012;2024-02-23T13:25:42;974.50;;;362.48;;
52438;SDS011;73188;52.948;6.012;2024-02-23T13:36:09;953.22;;;356.98;;
52438;SDS011;73188;52.948;6.012;2024-02-23T13:46:37;938.85;;;323.70;;
52438;SDS011;73188;52.948;6.012;2024-02-23T13:57:04;950.85;;;335.63;;
52438;SDS011;73188;52.948;6.012;2024-02-23T14:07:30;930.05;;;334.08;;
52438;SDS011;73188;52.948;6.012;2024-02-23T14:17:55;922.72;;;323.08;;
52438;SDS011;73188;52.948;6.012;2024-02-23T14:28:21;907.50;;;315.75;;
52438;SDS011;73188;52.948;6.012;2024-02-23T14:38:47;906.15;;;326.08;;
52438;SDS011;73188;52.948;6.012;2024-02-23T14:49:13;941.60;;;327.47;;
52438;SDS011;73188;52.948;6.012;2024-02-23T14:59:39;940.38;;;347.67;;
52438;SDS011;73188;52.948;6.012;2024-02-23T15:10:11;957.10;;;339.63;;
52438;SDS011;73188;52.948;6.012;2024-02-23T15:20:37;904.30;;;318.42;;
52438;SDS011;73188;52.948;6.012;2024-02-23T15:31:03;907.70;;;340.70;;
52438;SDS011;73188;52.948;6.012;2024-02-23T15:41:29;938.28;;;342.10;;
52438;SDS011;73188;52.948;6.012;2024-02-23T15:51:56;885.45;;;318.20;;
52438;SDS011;73188;52.948;6.012;2024-02-23T16:02:22;883.88;;;319.25;;
52438;SDS011;73188;52.948;6.012;2024-02-23T16:12:49;853.53;;;306.88;;
52438;SDS011;73188;52.948;6.012;2024-02-23T16:23:17;855.67;;;320.00;;
52438;SDS011;73188;52.948;6.012;2024-02-23T16:33:43;820.20;;;305.85;;
52438;SDS011;73188;52.948;6.012;2024-02-23T16:44:09;820.40;;;296.17;;
52438;SDS011;73188;52.948;6.012;2024-02-23T16:54:36;784.47;;;284.17;;
52438;SDS011;73188;52.948;6.012;2024-02-23T17:05:02;784.63;;;284.13;;
52438;SDS011;73188;52.948;6.012;2024-02-23T17:15:28;787.17;;;285.90;;
52438;SDS011;73188;52.948;6.012;2024-02-23T17:25:54;787.67;;;296.90;;
52438;SDS011;73188;52.948;6.012;2024-02-23T17:36:19;802.80;;;303.30;;
52438;SDS011;73188;52.948;6.012;2024-02-23T17:46:45;797.35;;;299.30;;
52438;SDS011;73188;52.948;6.012;2024-02-23T17:57:14;784.45;;;283.35;;
52438;SDS011;73188;52.948;6.012;2024-02-23T18:07:40;811.78;;;294.35;;
52438;SDS011;73188;52.948;6.012;2024-02-23T18:18:05;809.95;;;303.65;;
52438;SDS011;73188;52.948;6.012;2024-02-23T18:28:31;821.55;;;298.77;;
52438;SDS011;73188;52.948;6.012;2024-02-23T18:39:02;801.47;;;292.85;;
52438;SDS011;73188;52.948;6.012;2024-02-23T18:49:27;799.55;;;305.58;;
52438;SDS011;73188;52.948;6.012;2024-02-23T18:59:56;800.65;;;312.60;;
52438;SDS011;73188;52.948;6.012;2024-02-23T19:10:22;804.53;;;300.13;;
52438;SDS011;73188;52.948;6.012;2024-02-23T19:20:48;801.92;;;300.67;;
52438;SDS011;73188;52.948;6.012;2024-02-23T19:31:14;800.63;;;302.05;;
52438;SDS011;73188;52.948;6.012;2024-02-23T19:41:43;778.30;;;284.42;;
52438;SDS011;73188;52.948;6.012;2024-02-23T19:52:10;784.72;;;304.05;;
52438;SDS011;73188;52.948;6.012;2024-02-23T20:02:38;798.83;;;291.50;;
52438;SDS011;73188;52.948;6.012;2024-02-23T20:13:04;785.03;;;285.80;;
52438;SDS011;73188;52.948;6.012;2024-02-23T20:23:30;768.80;;;288.98;;
52438;SDS011;73188;52.948;6.012;2024-02-23T20:33:56;772.42;;;292.73;;
52438;SDS011;73188;52.948;6.012;2024-02-23T20:44:22;774.78;;;306.92;;
52438;SDS011;73188;52.948;6.012;2024-02-23T20:54:47;762.08;;;299.65;;
52438;SDS011;73188;52.948;6.012;2024-02-23T21:05:13;753.03;;;296.98;;
52438;SDS011;73188;52.948;6.012;2024-02-23T21:15:40;783.50;;;292.63;;
52438;SDS011;73188;52.948;6.012;2024-02-23T21:26:06;750.25;;;296.95;;
52438;SDS011;73188;52.948;6.012;2024-02-23T21:36:32;749.95;;;284.95;;
52438;SDS011;73188;52.948;6.012;2024-02-23T21:46:58;788.95;;;282.90;;
52438;SDS011;73188;52.948;6.012;2024-02-23T21:57:24;770.97;;;278.85;;
52438;SDS011;73188;52.948;6.012;2024-02-23T22:07:50;756.42;;;276.58;;
52438;SDS011;73188;52.948;6.012;2024-02-23T22:18:16;737.28;;;281.48;;
52438;SDS011;73188;52.948;6.012;2024-02-23T22:28:42;757.40;;;278.52;;
52438;SDS011;73188;52.948;6.012;2024-02-23T22:39:08;763.20;;;279.33;;
52438;SDS011;73188;52.948;6.012;2024-02-23T22:49:33;779.50;;;304.17;;
52438;SDS011;73188;52.948;6.012;2024-02-23T23:00:03;785.38;;;307.17;;
52438;SDS011;73188;52.948;6.012;2024-02-23T23:10:29;774.92;;;279.23;;
52438;SDS011;73188;52.948;6.012;2024-02-23T23:20:55;791.10;;;307.50;;
52438;SDS011;73188;52.948;6.012;2024-02-23T23:31:21;783.65;;;293.40;;
52438;SDS011;73188;52.948;6.012;2024-02-23T23:41:47;785.08;;;296.17;;
52438;SDS011;73188;52.948;6.012;2024-02-23T23:52:14;763.67;;;283.85;;
